Time;durP1;ratioP1;P1;durP2;ratioP2;P2;SDS_P1;SDS_P2;PMS_P1;PMS_P2;Temp;Humidity;BMP_temperature;BMP_pressure;BME280_temperature;BME280_humidity;BME280_pressure;Samples;Min_cycle;Max_cycle;Signal;HPM_P1;HPM_P2
2021/01/18 00:01:21;;;;;;;;;;;23.50;38.40;;;;;;1609535;73;718;-65
2021/01/18 00:03:23;;;;;;;;;;;23.50;38.40;;;;;;1608832;73;745;-63
2021/01/18 00:05:25;;;;;;;;;;;23.50;38.40;;;;;;1607679;73;766;-61
2021/01/18 00:07:27;;;;;;;;;;;23.50;38.50;;;;;;1607047;73;1126;-63
2021/01/18 00:09:29;;;;;;;;;;;23.50;38.60;;;;;;1593910;73;668;-62
2021/01/18 00:11:31;;;;;;;;;;;23.50;38.60;;;;;;1606733;73;1928;-60
2021/01/18 00:13:33;;;;;;;;;;;23.50;38.50;;;;;;1611053;73;694;-62
2021/01/18 00:15:34;;;;;;;;;;;23.50;38.40;;;;;;1605806;73;713;-62
2021/01/18 00:17:36;;;;;;;;;;;23.60;38.30;;;;;;1607276;73;1101;-62
2021/01/18 00:19:38;;;;;;;;;;;23.50;38.20;;;;;;1608462;73;794;-60
2021/01/18 00:21:46;;;;;;;;;;;23.60;38.10;;;;;;1595920;73;716;-63
2021/01/18 00:23:48;;;;;;;;;;;23.50;38.10;;;;;;1605718;73;703;-62
2021/01/18 00:25:50;;;;;;;;;;;23.60;38.10;;;;;;1608694;73;772;-65
2021/01/18 00:27:52;;;;;;;;;;;23.60;38.10;;;;;;1609824;73;1150;-65
2021/01/18 00:29:54;;;;;;;;;;;23.50;38.20;;;;;;1608495;73;725;-63
2021/01/18 00:31:58;;;;;;;;;;;23.50;38.30;;;;;;1604316;73;1944;-63
2021/01/18 00:34:00;;;;;;;;;;;23.40;38.20;;;;;;1602445;73;819;-64
2021/01/18 00:36:02;;;;;;;;;;;23.40;38.20;;;;;;1610736;73;799;-64
2021/01/18 00:38:03;;;;;;;;;;;23.40;38.30;;;;;;1608056;73;1195;-64
2021/01/18 00:40:06;;;;;;;;;;;23.40;38.30;;;;;;1609701;73;697;-63
2021/01/18 00:42:08;;;;;;;;;;;23.40;38.20;;;;;;1605214;73;936;-63
2021/01/18 00:44:10;;;;;;;;;;;23.40;38.20;;;;;;1604641;73;726;-63
2021/01/18 00:46:12;;;;;;;;;;;23.40;38.10;;;;;;1610410;73;782;-63
2021/01/18 00:48:13;;;;;;;;;;;23.50;38.10;;;;;;1571117;74;1123;-62
2021/01/18 00:50:16;;;;;;;;;;;23.50;38.10;;;;;;1607346;74;702;-67
2021/01/18 00:52:18;;;;;;;;;;;23.50;38.10;;;;;;1606052;73;1918;-64
2021/01/18 00:54:20;;;;;;;;;;;23.40;38.20;;;;;;1604212;73;672;-65
2021/01/18 00:56:21;;;;;;;;;;;23.50;38.60;;;;;;1606260;73;724;-66
2021/01/18 00:58:23;;;;;;;;;;;23.40;38.50;;;;;;1621004;72;1122;-64
2021/01/18 01:00:26;;;;;;;;;;;23.40;38.60;;;;;;1626835;72;700;-65
2021/01/18 01:02:28;;;;;;;;;;;23.50;38.80;;;;;;1620566;73;820;-65
2021/01/18 01:04:30;;;;;;;;;;;23.60;38.90;;;;;;1620986;73;696;-65
2021/01/18 01:06:33;;;;;;;;;;;23.50;38.80;;;;;;1622926;72;1138;-65
2021/01/18 01:08:35;;;;;;;;;;;23.60;38.60;;;;;;1625763;72;671;-64
2021/01/18 01:10:37;;;;;;;;;;;23.60;38.60;;;;;;1624762;72;799;-64
2021/01/18 01:12:38;;;;;;;;;;;23.60;38.70;;;;;;1620338;72;1927;-64
2021/01/18 01:14:40;;;;;;;;;;;23.60;38.80;;;;;;1620478;73;1059;-64
2021/01/18 01:16:43;;;;;;;;;;;23.60;38.80;;;;;;1626085;72;1164;-64
2021/01/18 01:18:44;;;;;;;;;;;23.60;38.80;;;;;;1625828;72;1051;-65
2021/01/18 01:20:46;;;;;;;;;;;23.60;39.00;;;;;;1622285;72;768;-63
2021/01/18 01:22:48;;;;;;;;;;;23.60;39.00;;;;;;1622725;73;745;-64
2021/01/18 01:24:50;;;;;;;;;;;23.60;39.00;;;;;;1629735;72;785;-68
2021/01/18 01:26:52;;;;;;;;;;;23.60;39.00;;;;;;1627111;72;1191;-66
2021/01/18 01:28:54;;;;;;;;;;;23.60;39.00;;;;;;1624792;72;783;-65
2021/01/18 01:30:56;;;;;;;;;;;23.60;38.90;;;;;;1625018;72;738;-65
2021/01/18 01:32:58;;;;;;;;;;;23.60;38.70;;;;;;1617637;72;1941;-65
2021/01/18 01:34:59;;;;;;;;;;;23.60;38.50;;;;;;1617495;72;777;-65
2021/01/18 01:37:01;;;;;;;;;;;23.60;38.40;;;;;;1625253;72;1107;-64
2021/01/18 01:39:03;;;;;;;;;;;23.70;38.50;;;;;;1627131;72;692;-64
2021/01/18 01:41:05;;;;;;;;;;;23.60;38.40;;;;;;1623004;72;592;-64
2021/01/18 01:43:07;;;;;;;;;;;23.60;38.40;;;;;;1621109;72;790;-64
2021/01/18 01:45:10;;;;;;;;;;;23.60;38.50;;;;;;1626965;72;651;-64
2021/01/18 01:47:12;;;;;;;;;;;23.60;38.40;;;;;;1625341;72;1162;-64
2021/01/18 01:49:14;;;;;;;;;;;23.60;38.40;;;;;;1625058;72;728;-64
2021/01/18 01:51:15;;;;;;;;;;;23.60;38.30;;;;;;1618895;72;720;-65
2021/01/18 01:53:22;;;;;;;;;;;23.60;38.30;;;;;;1622917;72;1947;-63
2021/01/18 01:55:30;;;;;;;;;;;23.60;38.30;;;;;;1625604;72;1085;-63
2021/01/18 01:57:32;;;;;;;;;;;23.60;38.30;;;;;;1625809;72;1112;-63
2021/01/18 01:59:34;;;;;;;;;;;23.60;38.30;;;;;;1615581;72;768;-64
2021/01/18 02:01:36;;;;;;;;;;;23.60;38.20;;;;;;1625723;72;784;-64
2021/01/18 02:03:41;;;;;;;;;;;23.60;38.10;;;;;;1624585;72;713;-64
2021/01/18 02:05:43;;;;;;;;;;;23.60;38.10;;;;;;1624106;72;786;-63
2021/01/18 02:07:45;;;;;;;;;;;23.60;38.10;;;;;;1619065;72;1154;-64
2021/01/18 02:09:46;;;;;;;;;;;23.60;38.20;;;;;;1622215;72;758;-64
2021/01/18 02:11:48;;;;;;;;;;;23.60;38.20;;;;;;1627113;73;694;-63
2021/01/18 02:14:04;;;;;;;;;;;23.60;38.30;;;;;;1626798;72;1948;-64
2021/01/18 02:16:20;;;;;;;;;;;23.60;38.30;;;;;;1619616;73;1907;-63
2021/01/18 02:18:30;;;;;;;;;;;23.50;38.20;;;;;;1622893;72;1093;-63
2021/01/18 02:20:48;;;;;;;;;;;23.50;38.30;;;;;;1626633;72;780;-64
2021/01/18 02:23:01;;;;;;;;;;;23.50;38.30;;;;;;1627871;72;754;-64
2021/01/18 02:25:07;;;;;;;;;;;23.60;38.30;;;;;;1623070;72;704;-65
2021/01/18 02:27:13;;;;;;;;;;;23.60;38.40;;;;;;1621442;72;1174;-65
2021/01/18 02:29:23;;;;;;;;;;;23.50;38.40;;;;;;1623456;73;757;-65
2021/01/18 02:31:43;;;;;;;;;;;23.50;38.40;;;;;;1624112;72;755;-65
2021/01/18 02:33:59;;;;;;;;;;;23.50;38.40;;;;;;1623719;72;1911;-64
2021/01/18 02:36:08;;;;;;;;;;;23.50;38.50;;;;;;1621678;73;833;-65
2021/01/18 02:38:11;;;;;;;;;;;23.50;38.50;;;;;;1624802;72;1832;-65
2021/01/18 02:40:14;;;;;;;;;;;23.50;38.80;;;;;;1621746;72;800;-65
2021/01/18 02:42:18;;;;;;;;;;;23.50;38.80;;;;;;1614680;72;1131;-62
2021/01/18 02:44:20;;;;;;;;;;;23.50;38.80;;;;;;1623687;72;1445;-64
2021/01/18 02:46:22;;;;;;;;;;;23.50;39.00;;;;;;1627661;72;668;-64
2021/01/18 02:48:24;;;;;;;;;;;23.50;39.00;;;;;;1626073;72;1161;-64
2021/01/18 02:50:26;;;;;;;;;;;23.50;39.00;;;;;;1601475;72;780;-62
2021/01/18 02:52:28;;;;;;;;;;;23.50;38.90;;;;;;1620352;72;1944;-62
2021/01/18 02:54:30;;;;;;;;;;;23.50;38.90;;;;;;1620151;72;723;-62
2021/01/18 02:56:33;;;;;;;;;;;23.50;38.80;;;;;;1609138;72;1151;-63
2021/01/18 02:58:39;;;;;;;;;;;23.50;38.90;;;;;;1619732;72;681;-63
2021/01/18 03:00:41;;;;;;;;;;;23.50;38.90;;;;;;1592131;73;700;-63
2021/01/18 03:02:47;;;;;;;;;;;23.50;38.80;;;;;;1577718;73;766;-63
2021/01/18 03:04:53;;;;;;;;;;;23.50;38.90;;;;;;1566948;74;763;-63
2021/01/18 03:06:59;;;;;;;;;;;23.50;38.80;;;;;;1603057;73;1945;-63
2021/01/18 03:09:02;;;;;;;;;;;23.50;38.90;;;;;;1595341;73;1685;-63
2021/01/18 03:11:06;;;;;;;;;;;23.50;38.70;;;;;;1592023;73;1063;-63
2021/01/18 03:13:19;;;;;;;;;;;23.50;38.90;;;;;;1600774;73;1931;-63
2021/01/18 03:15:21;;;;;;;;;;;23.60;38.70;;;;;;1591580;73;738;-63
2021/01/18 03:17:24;;;;;;;;;;;23.50;38.70;;;;;;1600434;73;1139;-64
2021/01/18 03:19:39;;;;;;;;;;;23.50;38.60;;;;;;1604322;73;701;-65
2021/01/18 03:21:45;;;;;;;;;;;23.50;38.50;;;;;;1609065;73;684;-65
2021/01/18 03:23:47;;;;;;;;;;;23.50;38.60;;;;;;1603402;73;774;-63
2021/01/18 03:25:53;;;;;;;;;;;23.60;38.60;;;;;;1588082;73;651;-64
2021/01/18 03:27:57;;;;;;;;;;;23.50;38.80;;;;;;1607836;73;1538;-63
2021/01/18 03:29:59;;;;;;;;;;;23.50;38.80;;;;;;1594986;73;767;-63
2021/01/18 03:32:01;;;;;;;;;;;23.50;39.00;;;;;;1607835;73;722;-63
2021/01/18 03:34:03;;;;;;;;;;;23.50;38.90;;;;;;1588705;73;1931;-65
2021/01/18 03:36:05;;;;;;;;;;;23.50;38.90;;;;;;1590904;73;744;-64
2021/01/18 03:38:07;;;;;;;;;;;23.40;38.90;;;;;;1588715;73;1137;-65
2021/01/18 03:40:09;;;;;;;;;;;23.40;39.00;;;;;;1611460;73;751;-64
2021/01/18 03:42:11;;;;;;;;;;;23.40;39.00;;;;;;1600294;73;697;-65
2021/01/18 03:44:13;;;;;;;;;;;23.40;39.40;;;;;;1599762;73;865;-65
2021/01/18 03:46:15;;;;;;;;;;;23.30;39.20;;;;;;1599856;73;747;-66
2021/01/18 03:48:17;;;;;;;;;;;23.20;39.30;;;;;;1611607;74;1131;-64
2021/01/18 03:50:19;;;;;;;;;;;23.40;39.40;;;;;;1600437;73;718;-65
2021/01/18 03:52:20;;;;;;;;;;;23.40;39.40;;;;;;1587799;73;763;-65
2021/01/18 03:54:22;;;;;;;;;;;23.30;39.60;;;;;;1584981;73;1930;-64
2021/01/18 03:56:24;;;;;;;;;;;23.30;39.80;;;;;;1594039;73;701;-64
2021/01/18 03:58:26;;;;;;;;;;;23.20;39.70;;;;;;1605721;73;746;-65
2021/01/18 04:00:28;;;;;;;;;;;23.20;39.90;;;;;;1600028;73;1058;-64
2021/01/18 04:02:30;;;;;;;;;;;23.20;39.90;;;;;;1606247;73;744;-65
2021/01/18 04:04:32;;;;;;;;;;;23.20;40.00;;;;;;1612817;73;736;-64
2021/01/18 04:06:39;;;;;;;;;;;23.20;40.10;;;;;;1621611;72;1140;-64
2021/01/18 04:08:41;;;;;;;;;;;23.20;40.10;;;;;;1627147;72;693;-64
2021/01/18 04:10:43;;;;;;;;;;;23.20;40.20;;;;;;1608086;73;737;-64
2021/01/18 04:12:45;;;;;;;;;;;23.10;40.20;;;;;;1627551;72;1939;-65
2021/01/18 04:14:48;;;;;;;;;;;23.10;40.50;;;;;;1611524;72;692;-65
2021/01/18 04:16:50;;;;;;;;;;;23.10;40.50;;;;;;1625263;73;1143;-67
2021/01/18 04:18:51;;;;;;;;;;;23.10;40.90;;;;;;1621216;72;715;-67
2021/01/18 04:20:54;;;;;;;;;;;23.10;40.90;;;;;;1627650;72;708;-67
2021/01/18 04:22:57;;;;;;;;;;;23.00;41.10;;;;;;1627526;72;710;-66
2021/01/18 04:24:59;;;;;;;;;;;23.10;41.50;;;;;;1622131;72;785;-67
2021/01/18 04:27:01;;;;;;;;;;;23.00;41.40;;;;;;1627217;72;1103;-67
2021/01/18 04:29:03;;;;;;;;;;;23.00;41.40;;;;;;1604836;72;687;-65
2021/01/18 04:31:05;;;;;;;;;;;23.10;41.50;;;;;;1610538;72;693;-65
2021/01/18 04:33:07;;;;;;;;;;;23.10;41.70;;;;;;1609989;72;1942;-65
2021/01/18 04:35:10;;;;;;;;;;;23.10;41.80;;;;;;1623552;72;777;-66
2021/01/18 04:37:11;;;;;;;;;;;23.00;41.70;;;;;;1628000;73;1180;-65
2021/01/18 04:39:13;;;;;;;;;;;23.00;41.80;;;;;;1620778;72;649;-66
2021/01/18 04:41:15;;;;;;;;;;;23.00;41.90;;;;;;1614475;73;731;-66
2021/01/18 04:43:17;;;;;;;;;;;23.00;41.80;;;;;;1628659;73;863;-65
2021/01/18 04:45:19;;;;;;;;;;;23.00;42.00;;;;;;1623621;72;754;-66
2021/01/18 04:47:22;;;;;;;;;;;23.00;42.00;;;;;;1607128;72;1196;-65
2021/01/18 04:49:24;;;;;;;;;;;23.10;42.10;;;;;;1640712;72;752;-66
2021/01/18 04:51:26;;;;;;;;;;;23.00;41.90;;;;;;1627936;72;713;-66
2021/01/18 04:53:28;;;;;;;;;;;23.10;42.10;;;;;;1619350;72;1922;-67
2021/01/18 04:55:33;;;;;;;;;;;23.10;42.10;;;;;;1612543;73;653;-67
2021/01/18 04:57:37;;;;;;;;;;;23.10;42.10;;;;;;1619631;73;1186;-67
2021/01/18 04:59:39;;;;;;;;;;;23.20;42.20;;;;;;1612077;73;785;-67
2021/01/18 05:01:41;;;;;;;;;;;23.20;42.10;;;;;;1620917;72;756;-65
2021/01/18 05:03:45;;;;;;;;;;;23.20;42.20;;;;;;1608125;73;739;-65
2021/01/18 05:05:54;;;;;;;;;;;23.20;42.10;;;;;;1622353;73;658;-65
2021/01/18 05:08:06;;;;;;;;;;;23.20;41.90;;;;;;1611271;72;1110;-65
2021/01/18 05:10:08;;;;;;;;;;;23.20;41.90;;;;;;1645232;72;753;-65
2021/01/18 05:12:10;;;;;;;;;;;23.20;41.80;;;;;;1623709;72;729;-66
2021/01/18 05:14:12;;;;;;;;;;;23.30;41.90;;;;;;1616237;72;1925;-66
2021/01/18 05:16:14;;;;;;;;;;;23.30;41.90;;;;;;1619768;72;750;-66
2021/01/18 05:18:15;;;;;;;;;;;23.40;41.70;;;;;;1621435;72;1119;-65
2021/01/18 05:20:18;;;;;;;;;;;23.30;41.90;;;;;;1621302;72;698;-65
2021/01/18 05:22:20;;;;;;;;;;;23.30;42.10;;;;;;1629199;72;776;-65
2021/01/18 05:24:22;;;;;;;;;;;23.20;42.10;;;;;;1622257;72;716;-64
2021/01/18 05:26:27;;;;;;;;;;;23.30;42.30;;;;;;1621456;72;721;-65
2021/01/18 05:28:29;;;;;;;;;;;23.30;42.30;;;;;;1621700;72;902;-65
2021/01/18 05:30:37;;;;;;;;;;;23.30;42.20;;;;;;1614419;73;723;-65
2021/01/18 05:32:39;;;;;;;;;;;23.20;42.30;;;;;;1620821;72;678;-65
2021/01/18 05:34:40;;;;;;;;;;;23.20;42.30;;;;;;1619978;72;1941;-65
2021/01/18 05:36:46;;;;;;;;;;;23.20;42.40;;;;;;1619814;72;1145;-65
2021/01/18 05:38:48;;;;;;;;;;;23.20;42.40;;;;;;1623050;72;780;-64
2021/01/18 05:40:50;;;;;;;;;;;23.20;42.40;;;;;;1630782;72;1098;-66
2021/01/18 05:42:52;;;;;;;;;;;23.20;42.60;;;;;;1622456;72;703;-66
2021/01/18 05:44:54;;;;;;;;;;;23.20;42.70;;;;;;1605533;72;718;-67
2021/01/18 05:46:58;;;;;;;;;;;23.20;42.60;;;;;;1624374;72;1127;-66
2021/01/18 05:49:07;;;;;;;;;;;23.20;42.70;;;;;;1618832;72;1877;-66
2021/01/18 05:51:09;;;;;;;;;;;23.20;42.80;;;;;;1565804;73;1143;-67
2021/01/18 05:53:12;;;;;;;;;;;23.20;42.70;;;;;;1607015;73;665;-67
2021/01/18 05:55:16;;;;;;;;;;;23.30;43.00;;;;;;1587926;73;1937;-66
2021/01/18 05:57:18;;;;;;;;;;;23.20;43.00;;;;;;1597190;73;1444;-67
2021/01/18 05:59:20;;;;;;;;;;;23.10;42.90;;;;;;1618465;72;787;-66
2021/01/18 06:01:39;;;;;;;;;;;23.20;42.90;;;;;;1604593;72;697;-66
2021/01/18 06:03:41;;;;;;;;;;;23.20;42.80;;;;;;1613905;72;668;-66
2021/01/18 06:05:42;;;;;;;;;;;23.20;42.80;;;;;;1608472;72;770;-66
2021/01/18 06:07:44;;;;;;;;;;;23.20;42.90;;;;;;1627815;72;1146;-66
2021/01/18 06:09:47;;;;;;;;;;;23.30;43.00;;;;;;1623798;73;752;-67
2021/01/18 06:11:49;;;;;;;;;;;23.20;42.80;;;;;;1623839;72;720;-67
2021/01/18 06:13:50;;;;;;;;;;;23.10;42.90;;;;;;1622753;72;1941;-67
2021/01/18 06:16:03;;;;;;;;;;;23.20;42.80;;;;;;1593264;74;745;-66
2021/01/18 06:18:05;;;;;;;;;;;23.20;42.90;;;;;;1619633;72;1129;-65
2021/01/18 06:20:07;;;;;;;;;;;23.30;43.30;;;;;;1589543;74;1160;-65
2021/01/18 06:22:09;;;;;;;;;;;23.20;43.10;;;;;;1624000;72;1018;-65
2021/01/18 06:24:15;;;;;;;;;;;23.20;43.10;;;;;;1628251;72;1083;-65
2021/01/18 06:26:17;;;;;;;;;;;23.20;43.10;;;;;;1623530;72;1566;-64
2021/01/18 06:28:32;;;;;;;;;;;23.20;43.30;;;;;;1622000;72;1082;-65
2021/01/18 06:30:33;;;;;;;;;;;23.10;43.30;;;;;;1619596;72;714;-65
2021/01/18 06:32:35;;;;;;;;;;;23.20;43.40;;;;;;1623307;72;774;-65
2021/01/18 06:34:37;;;;;;;;;;;23.10;43.30;;;;;;1627298;73;1939;-65
2021/01/18 06:36:39;;;;;;;;;;;23.10;43.40;;;;;;1629658;72;1142;-65
2021/01/18 06:38:41;;;;;;;;;;;23.20;43.40;;;;;;1626171;72;785;-65
2021/01/18 06:40:43;;;;;;;;;;;23.10;43.50;;;;;;1620450;72;774;-65
2021/01/18 06:42:45;;;;;;;;;;;23.10;43.50;;;;;;1607747;72;707;-65
2021/01/18 06:44:47;;;;;;;;;;;23.10;43.60;;;;;;1624210;72;911;-65
2021/01/18 06:46:48;;;;;;;;;;;23.10;43.50;;;;;;1596930;73;1154;-65
2021/01/18 06:48:51;;;;;;;;;;;23.20;43.60;;;;;;1602476;73;727;-66
2021/01/18 06:50:53;;;;;;;;;;;23.10;43.60;;;;;;1585607;73;681;-65
2021/01/18 06:52:56;;;;;;;;;;;23.20;43.60;;;;;;1608624;74;753;-65
2021/01/18 06:55:05;;;;;;;;;;;23.10;43.70;;;;;;1592224;73;1894;-64
2021/01/18 06:57:09;;;;;;;;;;;23.10;43.80;;;;;;1612042;73;1184;-66
2021/01/18 06:59:27;;;;;;;;;;;23.20;43.90;;;;;;1611878;73;1490;-66
2021/01/18 07:01:31;;;;;;;;;;;23.20;43.90;;;;;;1641904;72;787;-66
2021/01/18 07:03:42;;;;;;;;;;;23.20;43.90;;;;;;1650268;72;1906;-66
2021/01/18 07:05:47;;;;;;;;;;;23.20;43.80;;;;;;1633856;72;715;-66
2021/01/18 07:07:51;;;;;;;;;;;23.10;43.70;;;;;;1625171;72;1106;-66
2021/01/18 07:10:00;;;;;;;;;;;23.20;43.80;;;;;;1622083;72;1969;-66
2021/01/18 07:12:05;;;;;;;;;;;23.20;43.90;;;;;;1615009;73;1670;-67
2021/01/18 07:14:11;;;;;;;;;;;23.20;43.80;;;;;;1623216;72;1961;-66
2021/01/18 07:16:13;;;;;;;;;;;23.10;43.90;;;;;;1627214;72;725;-65
2021/01/18 07:18:15;;;;;;;;;;;23.20;43.90;;;;;;1614644;72;1121;-65
2021/01/18 07:20:24;;;;;;;;;;;23.20;44.00;;;;;;1619154;72;689;-66
2021/01/18 07:22:28;;;;;;;;;;;23.10;43.90;;;;;;1614657;72;713;-66
2021/01/18 07:24:30;;;;;;;;;;;23.20;44.00;;;;;;1624232;72;716;-66
2021/01/18 07:26:32;;;;;;;;;;;23.10;43.90;;;;;;1609447;72;1174;-66
2021/01/18 07:28:34;;;;;;;;;;;23.20;44.00;;;;;;1619409;72;770;-66
2021/01/18 07:30:37;;;;;;;;;;;23.20;44.00;;;;;;1617434;73;723;-65
2021/01/18 07:32:39;;;;;;;;;;;23.20;44.20;;;;;;1627670;73;723;-65
2021/01/18 07:34:40;;;;;;;;;;;23.10;44.10;;;;;;1615805;72;1895;-66
2021/01/18 07:36:48;;;;;;;;;;;23.20;44.10;;;;;;1608762;72;1121;-66
2021/01/18 07:38:50;;;;;;;;;;;23.20;44.00;;;;;;1621852;73;1035;-65
2021/01/18 07:41:09;;;;;;;;;;;23.20;44.10;;;;;;1630163;72;730;-66
2021/01/18 07:43:11;;;;;;;;;;;23.20;44.10;;;;;;1626634;72;772;-66
2021/01/18 07:45:14;;;;;;;;;;;23.20;44.20;;;;;;1587064;73;1058;-66
2021/01/18 07:47:16;;;;;;;;;;;23.20;44.20;;;;;;1619364;71;1181;-67
2021/01/18 07:49:25;;;;;;;;;;;23.30;44.20;;;;;;1646645;71;700;-67
2021/01/18 07:51:28;;;;;;;;;;;23.20;44.20;;;;;;1615004;73;699;-67
2021/01/18 07:53:31;;;;;;;;;;;23.20;43.90;;;;;;1616560;73;724;-67
2021/01/18 07:55:33;;;;;;;;;;;23.20;44.00;;;;;;1618805;73;1907;-67
2021/01/18 07:57:38;;;;;;;;;;;23.20;44.00;;;;;;1606039;73;1179;-67
2021/01/18 07:59:40;;;;;;;;;;;23.20;44.00;;;;;;1606308;71;751;-67
2021/01/18 08:01:42;;;;;;;;;;;23.20;44.00;;;;;;1606186;71;681;-68
2021/01/18 08:03:44;;;;;;;;;;;23.20;44.00;;;;;;1606743;71;695;-67
2021/01/18 08:05:46;;;;;;;;;;;23.20;44.10;;;;;;1608720;71;743;-67
2021/01/18 08:08:01;;;;;;;;;;;23.20;44.00;;;;;;1612983;71;1132;-67
2021/01/18 08:10:04;;;;;;;;;;;23.20;44.10;;;;;;1624344;71;718;-67
2021/01/18 08:12:24;;;;;;;;;;;23.20;44.00;;;;;;1616541;73;716;-68
2021/01/18 08:14:25;;;;;;;;;;;23.20;44.00;;;;;;1617929;71;1927;-67
2021/01/18 08:16:32;;;;;;;;;;;23.20;43.90;;;;;;1631256;71;1132;-67
2021/01/18 08:18:34;;;;;;;;;;;23.20;44.00;;;;;;1618887;71;681;-67
2021/01/18 08:20:35;;;;;;;;;;;23.20;44.10;;;;;;1613929;71;755;-68
2021/01/18 08:22:37;;;;;;;;;;;23.20;44.00;;;;;;1630091;71;737;-67
2021/01/18 08:24:41;;;;;;;;;;;23.20;44.20;;;;;;1628753;71;745;-67
2021/01/18 08:26:56;;;;;;;;;;;23.20;44.20;;;;;;1619927;71;1114;-67
2021/01/18 08:28:58;;;;;;;;;;;23.20;44.30;;;;;;1628199;71;701;-66
2021/01/18 08:30:59;;;;;;;;;;;23.20;44.30;;;;;;1620371;71;715;-67
2021/01/18 08:33:02;;;;;;;;;;;23.20;44.30;;;;;;1616948;71;712;-66
2021/01/18 08:35:05;;;;;;;;;;;23.20;44.60;;;;;;1616963;71;1930;-65
2021/01/18 08:37:07;;;;;;;;;;;23.30;44.60;;;;;;1610843;71;1105;-65
2021/01/18 08:39:12;;;;;;;;;;;23.20;44.60;;;;;;1625705;71;773;-65
2021/01/18 08:41:14;;;;;;;;;;;23.30;44.60;;;;;;1612941;71;704;-65
2021/01/18 08:43:17;;;;;;;;;;;23.30;44.70;;;;;;1619014;71;758;-65
2021/01/18 08:45:26;;;;;;;;;;;23.30;44.50;;;;;;1629858;71;775;-65
2021/01/18 08:47:45;;;;;;;;;;;23.30;44.50;;;;;;1632802;71;1152;-65
2021/01/18 08:49:47;;;;;;;;;;;23.40;44.60;;;;;;1621419;71;744;-65
2021/01/18 08:51:49;;;;;;;;;;;23.30;44.70;;;;;;1585853;73;615;-64
2021/01/18 08:53:51;;;;;;;;;;;23.30;44.40;;;;;;1590959;74;745;-65
2021/01/18 08:55:55;;;;;;;;;;;23.30;43.50;;;;;;1597204;74;1909;-66
2021/01/18 08:58:02;;;;;;;;;;;23.30;43.70;;;;;;1603029;73;1731;-66
2021/01/18 09:00:10;;;;;;;;;;;23.20;43.80;;;;;;1611446;73;695;-69
2021/01/18 09:02:16;;;;;;;;;;;23.30;44.20;;;;;;1595126;73;793;-68
2021/01/18 09:04:20;;;;;;;;;;;23.20;44.30;;;;;;1596446;73;807;-68
2021/01/18 09:06:21;;;;;;;;;;;23.30;44.50;;;;;;1591313;73;1825;-68
2021/01/18 09:08:24;;;;;;;;;;;23.30;44.60;;;;;;1602987;73;1140;-67
2021/01/18 09:10:26;;;;;;;;;;;23.30;44.70;;;;;;1601627;73;720;-66
2021/01/18 09:12:27;;;;;;;;;;;23.30;44.60;;;;;;1610664;73;796;-67
2021/01/18 09:14:30;;;;;;;;;;;23.40;44.70;;;;;;1607163;73;1946;-65
2021/01/18 09:16:32;;;;;;;;;;;23.40;44.70;;;;;;1609663;73;1159;-67
2021/01/18 09:18:34;;;;;;;;;;;23.40;44.80;;;;;;1608981;74;739;-62
2021/01/18 09:20:37;;;;;;;;;;;23.40;44.20;;;;;;1609902;73;806;-63
2021/01/18 09:22:40;;;;;;;;;;;23.30;42.80;;;;;;1609521;73;699;-61
2021/01/18 09:24:43;;;;;;;;;;;23.20;42.00;;;;;;1607433;73;790;-62
2021/01/18 09:26:45;;;;;;;;;;;23.20;42.10;;;;;;1593864;73;1406;-61
2021/01/18 09:28:52;;;;;;;;;;;23.20;42.00;;;;;;1600821;73;729;-63
2021/01/18 09:30:54;;;;;;;;;;;23.10;41.90;;;;;;1609653;73;714;-62
2021/01/18 09:32:56;;;;;;;;;;;23.10;41.90;;;;;;1609794;73;778;-63
2021/01/18 09:35:05;;;;;;;;;;;23.10;41.80;;;;;;1608558;73;1934;-63
2021/01/18 09:37:07;;;;;;;;;;;23.00;41.80;;;;;;1600991;73;1192;-63
2021/01/18 09:39:19;;;;;;;;;;;23.00;41.80;;;;;;1604999;73;694;-63
2021/01/18 09:41:21;;;;;;;;;;;23.00;42.10;;;;;;1606290;73;1486;-63
2021/01/18 09:43:23;;;;;;;;;;;23.10;41.80;;;;;;1607110;73;845;-63
2021/01/18 09:45:26;;;;;;;;;;;23.20;41.40;;;;;;1606726;73;766;-63
2021/01/18 09:47:28;;;;;;;;;;;23.30;41.10;;;;;;1609087;73;1195;-61
2021/01/18 09:49:30;;;;;;;;;;;23.40;40.70;;;;;;1628540;72;747;-62
2021/01/18 09:51:32;;;;;;;;;;;23.50;40.40;;;;;;1626899;73;751;-62
2021/01/18 09:53:34;;;;;;;;;;;23.50;40.10;;;;;;1624045;73;732;-62
2021/01/18 09:55:37;;;;;;;;;;;23.60;39.90;;;;;;1624303;73;1943;-62
2021/01/18 09:57:39;;;;;;;;;;;23.60;39.70;;;;;;1627633;72;1171;-63
2021/01/18 09:59:41;;;;;;;;;;;23.60;39.60;;;;;;1619546;72;704;-63
2021/01/18 10:01:43;;;;;;;;;;;23.60;39.40;;;;;;1624387;72;665;-63
2021/01/18 10:03:46;;;;;;;;;;;23.60;39.20;;;;;;1622313;72;642;-63
2021/01/18 10:05:48;;;;;;;;;;;23.60;39.10;;;;;;1619459;72;1555;-61
2021/01/18 10:07:52;;;;;;;;;;;23.70;39.10;;;;;;1623816;73;1131;-63
2021/01/18 10:09:55;;;;;;;;;;;23.70;39.10;;;;;;1632564;72;688;-63
2021/01/18 10:11:59;;;;;;;;;;;23.70;38.90;;;;;;1629891;72;732;-63
2021/01/18 10:14:02;;;;;;;;;;;23.70;38.80;;;;;;1621568;72;798;-64
2021/01/18 10:16:08;;;;;;;;;;;23.60;38.60;;;;;;1623851;72;1915;-63
2021/01/18 10:18:11;;;;;;;;;;;23.70;38.70;;;;;;1620746;72;1156;-63
2021/01/18 10:20:13;;;;;;;;;;;23.70;38.60;;;;;;1625980;72;697;-63
2021/01/18 10:22:16;;;;;;;;;;;23.60;38.40;;;;;;1617360;72;834;-63
2021/01/18 10:24:25;;;;;;;;;;;23.60;38.40;;;;;;1617913;72;683;-63
2021/01/18 10:26:28;;;;;;;;;;;23.60;38.30;;;;;;1556808;73;1250;-64
2021/01/18 10:28:30;;;;;;;;;;;23.60;38.10;;;;;;1628205;72;650;-63
2021/01/18 10:30:33;;;;;;;;;;;23.60;38.10;;;;;;1627605;72;706;-61
2021/01/18 10:32:48;;;;;;;;;;;23.60;38.00;;;;;;1625108;72;1019;-62
2021/01/18 10:34:50;;;;;;;;;;;23.60;38.00;;;;;;1626633;72;756;-61
2021/01/18 10:36:53;;;;;;;;;;;23.60;38.00;;;;;;1624345;72;1123;-61
2021/01/18 10:38:54;;;;;;;;;;;23.60;37.90;;;;;;1605583;72;750;-62
2021/01/18 10:41:01;;;;;;;;;;;23.60;37.80;;;;;;1627949;72;803;-62
2021/01/18 10:43:03;;;;;;;;;;;23.50;37.70;;;;;;1615337;72;1756;-62
2021/01/18 10:45:05;;;;;;;;;;;23.50;37.40;;;;;;1614456;72;706;-63
2021/01/18 10:47:07;;;;;;;;;;;23.50;37.40;;;;;;1623629;72;1154;-60
2021/01/18 10:49:09;;;;;;;;;;;23.50;37.30;;;;;;1628279;72;730;-61
2021/01/18 10:51:11;;;;;;;;;;;23.50;37.10;;;;;;1617082;72;655;-62
2021/01/18 10:53:14;;;;;;;;;;;23.50;36.90;;;;;;1623704;72;686;-62
2021/01/18 10:55:17;;;;;;;;;;;23.40;36.60;;;;;;1624133;72;1905;-60
2021/01/18 10:57:20;;;;;;;;;;;23.40;36.80;;;;;;1621011;72;1157;-59
2021/01/18 10:59:22;;;;;;;;;;;23.40;36.60;;;;;;1624035;72;776;-61
2021/01/18 11:01:24;;;;;;;;;;;23.40;36.50;;;;;;1612134;72;1072;-61
2021/01/18 11:03:26;;;;;;;;;;;23.30;36.40;;;;;;1621075;72;726;-60
2021/01/18 11:05:37;;;;;;;;;;;23.30;36.30;;;;;;1627044;72;716;-59
2021/01/18 11:07:39;;;;;;;;;;;23.30;36.10;;;;;;1625773;72;1152;-62
2021/01/18 11:09:41;;;;;;;;;;;23.20;36.00;;;;;;1627523;72;729;-62
2021/01/18 11:11:43;;;;;;;;;;;23.20;36.10;;;;;;1617406;72;673;-60
2021/01/18 11:13:45;;;;;;;;;;;23.20;36.10;;;;;;1607824;72;765;-62
2021/01/18 11:15:51;;;;;;;;;;;23.20;35.80;;;;;;1611229;72;1903;-62
2021/01/18 11:17:52;;;;;;;;;;;23.10;36.30;;;;;;1622207;72;1137;-62
2021/01/18 11:19:54;;;;;;;;;;;23.10;36.00;;;;;;1623695;72;711;-62
2021/01/18 11:21:56;;;;;;;;;;;23.20;36.20;;;;;;1621162;72;708;-62
2021/01/18 11:23:57;;;;;;;;;;;23.20;36.00;;;;;;1616588;72;734;-62
2021/01/18 11:25:59;;;;;;;;;;;23.20;36.10;;;;;;1621028;73;716;-62
2021/01/18 11:28:08;;;;;;;;;;;23.30;36.00;;;;;;1627768;72;1127;-62
2021/01/18 11:30:10;;;;;;;;;;;23.20;35.80;;;;;;1608809;72;707;-62
2021/01/18 11:32:12;;;;;;;;;;;23.20;35.90;;;;;;1600969;72;791;-62
2021/01/18 11:34:14;;;;;;;;;;;23.30;35.90;;;;;;1603890;72;679;-63
2021/01/18 11:36:16;;;;;;;;;;;23.20;35.80;;;;;;1619307;72;1935;-62
2021/01/18 11:38:18;;;;;;;;;;;23.30;35.90;;;;;;1589278;73;1159;-61
2021/01/18 11:40:20;;;;;;;;;;;23.30;35.70;;;;;;1591652;73;757;-62
2021/01/18 11:42:22;;;;;;;;;;;23.30;35.50;;;;;;1590059;73;857;-63
2021/01/18 11:44:24;;;;;;;;;;;23.30;35.50;;;;;;1602180;73;775;-62
2021/01/18 11:46:26;;;;;;;;;;;23.30;35.40;;;;;;1596479;73;720;-63
2021/01/18 11:48:28;;;;;;;;;;;23.30;35.30;;;;;;1607716;73;721;-60
2021/01/18 11:50:32;;;;;;;;;;;23.30;35.30;;;;;;1602648;73;726;-63
2021/01/18 11:52:33;;;;;;;;;;;23.30;35.20;;;;;;1607639;73;759;-60
2021/01/18 11:54:35;;;;;;;;;;;23.30;35.20;;;;;;1604233;73;709;-61
2021/01/18 11:56:37;;;;;;;;;;;23.30;34.70;;;;;;1599621;73;1936;-61
2021/01/18 11:58:39;;;;;;;;;;;23.30;34.10;;;;;;1593191;73;1087;-61
2021/01/18 12:00:41;;;;;;;;;;;23.30;33.80;;;;;;1603761;73;777;-60
2021/01/18 12:02:43;;;;;;;;;;;23.20;32.50;;;;;;1606719;74;802;-62
2021/01/18 12:04:45;;;;;;;;;;;23.20;31.80;;;;;;1564702;74;936;-62
2021/01/18 12:06:47;;;;;;;;;;;23.10;30.40;;;;;;1607910;73;1082;-62
2021/01/18 12:08:49;;;;;;;;;;;23.10;30.60;;;;;;1609343;73;722;-62
2021/01/18 12:10:51;;;;;;;;;;;23.00;30.40;;;;;;1602734;73;587;-62
2021/01/18 12:12:53;;;;;;;;;;;23.00;30.60;;;;;;1607184;73;731;-62
2021/01/18 12:14:55;;;;;;;;;;;22.90;30.60;;;;;;1608941;73;713;-62
2021/01/18 12:17:04;;;;;;;;;;;22.90;30.20;;;;;;1610420;73;1925;-62